Keshan, China
Current Conditions -  °F | °C
As of 6:00 PM on Thursday 23 Oct 2014 (Local Time) from ZYHB Reporting Station
Smoke Smoke  
Wind Chill: 54°   Ceiling: Unl
Heat Index: 54°   Visibility: 2.5mi
Dew Point: 43°   Wind: 9mph
Humidity: 67%   Direction: 200°SSW
Pressure: 29.8"   Gusts: NA
Location:  48.03°N, 125.86°E
Report Text: ZYHB 231000Z 20004MPS 4000 FU NSC 12/06 Q1009 NOSIG
Loading
Personal Weather Stations






























Interactive Weather Map
Tropical Storm Tracking
New forecast layout! Learn more

10-Day Weather Forecast

Advertisements
Track Severe Weather on mobile